Seagoville, Texas
Current Conditions -  °F | °C
As of 4:50 PM on Friday 31 Oct 2014 (Local Time) from KHQZ Reporting Station
Clear Clear  
Wind Chill: 64°   Ceiling: Unl
Heat Index: 64°   Visibility: 10mi
Dew Point: 37°   Wind: 13mph
Humidity: 37%   Direction: 360°N
Pressure: 30.29"   Gusts: 20mph
Location:  32.65°N, 96.54°W
Report Text: KHQZ 312150Z 36011G17KT 10SM CLR 18/03 A3029
Loading
Personal Weather Stations






























Interactive Weather Map
Tropical Storm Tracking
New forecast layout! Learn more

10-Day Weather Forecast

Advertisements
Track Severe Weather on mobile